createdAt,value
2018-08-10T00:00:30.373Z,19.27
2018-08-10T00:02:59.569Z,19.31
2018-08-10T00:05:28.348Z,19.31
2018-08-10T00:07:57.045Z,19.26
2018-08-10T00:10:25.833Z,19.24
2018-08-10T00:12:54.547Z,19.24
2018-08-10T00:15:23.272Z,19.27
2018-08-10T00:17:51.983Z,19.29
2018-08-10T00:20:20.661Z,19.38
2018-08-10T00:22:49.388Z,19.29
2018-08-10T00:25:18.841Z,19.28
2018-08-10T00:27:47.529Z,19.17
2018-08-10T00:30:17.737Z,19.09
2018-08-10T00:32:47.657Z,18.92
2018-08-10T00:35:16.517Z,18.90
2018-08-10T00:37:46.366Z,18.86
2018-08-10T00:40:18.640Z,18.85
2018-08-10T00:42:47.465Z,18.74
2018-08-10T00:45:16.921Z,18.64
2018-08-10T00:47:46.017Z,18.56
2018-08-10T00:50:15.624Z,18.44
2018-08-10T00:52:45.253Z,18.41
2018-08-10T00:55:15.260Z,18.39
2018-08-10T00:57:44.361Z,18.28
2018-08-10T01:00:15.384Z,18.21
2018-08-10T01:02:44.093Z,18.29
2018-08-10T01:05:12.833Z,18.33
2018-08-10T01:07:41.595Z,18.33
2018-08-10T01:10:13.409Z,18.41
2018-08-10T01:12:42.489Z,18.50
2018-08-10T01:15:13.032Z,18.43
2018-08-10T01:17:41.970Z,18.36
2018-08-10T01:20:25.332Z,18.43
2018-08-10T01:22:59.164Z,18.36
2018-08-10T01:25:28.381Z,18.38
2018-08-10T01:27:59.994Z,18.33
2018-08-10T01:30:29.780Z,18.24
2018-08-10T01:32:58.650Z,18.47
2018-08-10T01:35:27.876Z,18.47
2018-08-10T01:37:57.634Z,18.55
2018-08-10T01:40:26.334Z,18.44
2018-08-10T01:42:55.058Z,18.52
2018-08-10T01:45:23.777Z,18.51
2018-08-10T01:47:52.531Z,18.39
2018-08-10T01:50:21.238Z,18.26
2018-08-10T01:52:50.128Z,18.30
2018-08-10T01:55:18.909Z,18.30
2018-08-10T01:57:47.707Z,18.16
2018-08-10T02:00:16.421Z,18.09
2018-08-10T02:02:45.125Z,17.98
2018-08-10T02:05:14.919Z,18.08
2018-08-10T02:07:44.717Z,17.93
2018-08-10T02:10:15.853Z,17.91
2018-08-10T02:12:45.413Z,17.78
2018-08-10T02:15:16.524Z,17.83
2018-08-10T02:17:45.338Z,17.81
2018-08-10T02:20:15.642Z,17.90
2018-08-10T02:22:44.881Z,17.86
2018-08-10T02:25:14.958Z,17.94
2018-08-10T02:27:44.669Z,17.95
2018-08-10T02:30:14.870Z,18.07
2018-08-10T02:32:44.176Z,18.11
2018-08-10T02:35:12.911Z,17.97
2018-08-10T02:37:41.880Z,18.02
2018-08-10T02:40:12.814Z,17.91
2018-08-10T02:42:42.150Z,17.77
2018-08-10T02:45:10.872Z,17.62
2018-08-10T02:47:39.617Z,17.59
2018-08-10T02:50:08.326Z,17.55
2018-08-10T02:52:37.028Z,17.67
2018-08-10T02:55:07.069Z,17.58
2018-08-10T02:57:36.254Z,17.51
2018-08-10T03:00:06.566Z,17.80
2018-08-10T03:02:35.305Z,17.57
2018-08-10T03:05:04.034Z,17.63
2018-08-10T03:07:32.773Z,17.59
2018-08-10T03:10:01.499Z,17.48
2018-08-10T03:12:30.221Z,17.66
2018-08-10T03:14:58.930Z,17.57
2018-08-10T03:17:27.636Z,17.66
2018-08-10T03:19:56.364Z,17.64
2018-08-10T03:22:25.084Z,17.66
2018-08-10T03:24:53.861Z,17.78
2018-08-10T03:27:22.618Z,17.86
2018-08-10T03:29:51.339Z,18.08
2018-08-10T03:32:20.137Z,18.12
2018-08-10T03:34:49.049Z,18.26
2018-08-10T03:37:17.886Z,18.11
2018-08-10T03:39:46.606Z,18.09
2018-08-10T03:42:15.342Z,18.03
2018-08-10T03:44:44.114Z,18.13
2018-08-10T03:47:12.826Z,18.10
2018-08-10T03:49:41.584Z,18.16
2018-08-10T03:52:10.320Z,18.28
2018-08-10T03:54:39.081Z,18.56
2018-08-10T03:57:08.225Z,19.13
2018-08-10T03:59:36.939Z,20.57
2018-08-10T04:02:05.645Z,21.85
2018-08-10T04:04:34.346Z,22.94
2018-08-10T04:07:03.032Z,23.58
2018-08-10T04:09:31.727Z,23.99
2018-08-10T04:12:00.441Z,25.06
2018-08-10T04:14:29.128Z,26.00
2018-08-10T04:16:57.877Z,26.63
2018-08-10T04:19:26.588Z,27.61
2018-08-10T04:21:55.298Z,28.18
2018-08-10T04:24:23.981Z,28.55
2018-08-10T04:26:52.874Z,28.59
2018-08-10T04:29:21.590Z,29.19
2018-08-10T04:31:50.332Z,30.02
2018-08-10T04:34:19.118Z,30.39
2018-08-10T04:36:47.845Z,30.88
2018-08-10T04:39:16.534Z,31.31
2018-08-10T04:41:45.237Z,31.61
2018-08-10T04:44:13.942Z,31.12
2018-08-10T04:46:42.636Z,31.73
2018-08-10T04:49:11.398Z,31.51
2018-08-10T04:51:40.107Z,32.49
2018-08-10T04:54:08.791Z,32.61
2018-08-10T04:56:37.496Z,32.56
2018-08-10T04:59:06.206Z,32.75
2018-08-10T05:01:34.922Z,32.67
2018-08-10T05:04:03.618Z,32.63
2018-08-10T05:06:32.319Z,32.70
2018-08-10T05:09:01.129Z,32.54
2018-08-10T05:11:29.865Z,33.53
2018-08-10T05:13:59.018Z,32.81
2018-08-10T05:16:27.769Z,33.16
2018-08-10T05:18:56.562Z,33.60
2018-08-10T05:21:25.281Z,33.60
2018-08-10T05:23:54.036Z,32.64
2018-08-10T05:26:22.729Z,32.50
2018-08-10T05:28:51.445Z,32.84
2018-08-10T05:31:20.225Z,32.48
2018-08-10T05:33:49.066Z,33.95
2018-08-10T05:36:17.898Z,34.32
2018-08-10T05:38:46.601Z,34.23
2018-08-10T05:41:15.309Z,34.18
2018-08-10T05:43:44.042Z,33.60
2018-08-10T05:46:12.840Z,34.09
2018-08-10T05:48:42.334Z,33.30
2018-08-10T05:51:14.327Z,34.63
2018-08-10T05:53:43.228Z,35.06
2018-08-10T05:56:12.707Z,35.20
2018-08-10T05:58:41.398Z,35.88
2018-08-10T06:01:10.101Z,36.48
2018-08-10T06:03:38.852Z,36.79
2018-08-10T06:06:07.561Z,37.42
2018-08-10T06:08:36.273Z,37.14
2018-08-10T06:11:05.274Z,37.41
2018-08-10T06:13:34.081Z,36.99
2018-08-10T06:16:02.805Z,37.18
2018-08-10T06:18:31.890Z,36.77
2018-08-10T06:21:00.615Z,37.28
2018-08-10T06:23:29.405Z,36.84
2018-08-10T06:25:58.186Z,36.98
2018-08-10T06:28:27.048Z,36.79
2018-08-10T06:30:55.794Z,37.14
2018-08-10T06:33:24.541Z,36.79
2018-08-10T06:35:53.322Z,36.27
2018-08-10T06:38:22.048Z,36.89
2018-08-10T06:40:52.033Z,37.84
2018-08-10T06:43:20.988Z,38.38
2018-08-10T06:45:49.773Z,38.05
2018-08-10T06:48:18.501Z,37.11
2018-08-10T06:50:47.282Z,37.42
2018-08-10T06:53:18.138Z,37.73
2018-08-10T06:55:52.950Z,37.68
2018-08-10T06:58:21.746Z,37.30
2018-08-10T07:00:50.526Z,37.50
2018-08-10T07:03:19.247Z,37.13
2018-08-10T07:05:47.959Z,37.98
2018-08-10T07:08:16.710Z,38.75
2018-08-10T07:10:45.480Z,39.12
2018-08-10T07:13:14.338Z,38.24
2018-08-10T07:15:42.977Z,37.86
2018-08-10T07:18:11.698Z,36.80
2018-08-10T07:20:40.468Z,36.41
2018-08-10T07:23:09.247Z,35.12
2018-08-10T07:25:37.976Z,35.45
2018-08-10T07:28:06.718Z,35.70
2018-08-10T07:30:35.525Z,33.45
2018-08-10T07:33:04.328Z,32.47
2018-08-10T07:35:33.103Z,31.36
2018-08-10T07:38:01.915Z,32.40
2018-08-10T07:40:30.666Z,31.56
2018-08-10T07:42:59.406Z,31.73
2018-08-10T07:45:28.151Z,32.13
2018-08-10T07:47:56.906Z,32.97
2018-08-10T07:50:25.636Z,33.25
2018-08-10T07:52:54.364Z,33.56
2018-08-10T07:55:23.080Z,32.95
2018-08-10T07:57:51.795Z,32.71
2018-08-10T08:00:20.584Z,32.30
2018-08-10T08:02:49.311Z,32.67
2018-08-10T08:05:18.158Z,32.57
2018-08-10T08:07:46.878Z,32.81
2018-08-10T08:10:15.635Z,32.61
2018-08-10T08:12:44.414Z,31.91
2018-08-10T08:15:13.308Z,32.33
2018-08-10T08:17:42.049Z,33.06
2018-08-10T08:20:10.822Z,34.19
2018-08-10T08:23:07.744Z,34.62
2018-08-10T08:25:36.490Z,35.09
2018-08-10T08:28:05.231Z,35.14
2018-08-10T08:30:33.958Z,35.61
2018-08-10T08:33:03.649Z,35.56
2018-08-10T08:35:32.378Z,35.17
2018-08-10T08:38:12.276Z,34.17
2018-08-10T08:40:41.005Z,33.66
2018-08-10T08:43:09.775Z,32.73
2018-08-10T08:45:52.477Z,32.83
2018-08-10T08:48:24.196Z,32.97
2018-08-10T08:50:56.626Z,32.67
2018-08-10T08:53:30.435Z,31.50
2018-08-10T08:56:01.757Z,31.56
2018-08-10T08:58:31.019Z,30.87
2018-08-10T09:46:48.107Z,34.90
2018-08-10T09:49:16.862Z,34.93
2018-08-10T09:51:45.653Z,34.19
2018-08-10T09:54:14.391Z,32.51
2018-08-10T09:56:43.465Z,32.08
2018-08-10T09:59:12.191Z,32.80
2018-08-10T10:01:47.952Z,34.43
2018-08-10T10:04:17.255Z,35.24
2018-08-10T10:06:46.001Z,34.56
2018-08-10T10:09:14.787Z,33.76
2018-08-10T10:11:43.527Z,32.73
2018-08-10T10:14:12.325Z,32.18
2018-08-10T10:16:41.245Z,33.24
2018-08-10T10:31:46.864Z,37.32
2018-08-10T10:50:29.862Z,36.62
2018-08-10T10:52:58.740Z,35.62
2018-08-10T10:55:27.577Z,35.07
2018-08-10T10:57:56.290Z,34.05
2018-08-10T11:00:25.039Z,33.22
2018-08-10T11:02:53.770Z,33.90
2018-08-10T11:05:22.583Z,35.74
2018-08-10T11:07:51.401Z,36.69
2018-08-10T11:10:20.557Z,36.94
2018-08-10T11:12:49.359Z,37.55
2018-08-10T11:15:18.092Z,36.47
2018-08-10T11:17:46.923Z,34.92
2018-08-10T11:20:15.749Z,34.94
2018-08-10T11:22:44.776Z,35.54
2018-08-10T11:25:14.780Z,35.38
2018-08-10T11:27:44.370Z,36.42
2018-08-10T11:30:13.400Z,36.65
2018-08-10T11:32:42.118Z,37.45
2018-08-10T11:35:11.183Z,37.05
2018-08-10T11:37:40.013Z,36.97
2018-08-10T11:40:12.286Z,37.01
2018-08-10T11:42:41.250Z,36.69
2018-08-10T11:45:11.961Z,35.74
2018-08-10T11:47:40.779Z,35.76
2018-08-10T11:50:09.693Z,37.40
2018-08-10T11:52:38.657Z,38.48
2018-08-10T11:55:08.650Z,39.14
2018-08-10T11:57:37.379Z,38.05
2018-08-10T12:00:07.577Z,39.14
2018-08-10T12:02:36.405Z,40.41
2018-08-10T12:05:06.362Z,41.93
2018-08-10T12:07:35.103Z,42.16
2018-08-10T12:10:03.987Z,42.02
2018-08-10T12:12:32.818Z,41.97
2018-08-10T12:15:01.515Z,42.07
2018-08-10T12:17:30.435Z,40.50
2018-08-10T12:19:59.179Z,40.73
2018-08-10T12:22:27.928Z,39.19
2018-08-10T12:24:56.711Z,38.71
2018-08-10T12:27:25.467Z,40.13
2018-08-10T12:29:54.267Z,40.18
2018-08-10T12:32:23.046Z,40.31
2018-08-10T12:34:51.781Z,39.94
2018-08-10T12:37:20.511Z,38.60
2018-08-10T12:39:49.268Z,40.12
2018-08-10T12:42:18.151Z,39.29
2018-08-10T12:44:46.901Z,38.10
2018-08-10T12:47:15.689Z,36.73
2018-08-10T12:49:44.466Z,36.68
2018-08-10T12:52:13.228Z,36.60
2018-08-10T12:54:41.961Z,35.69
2018-08-10T12:57:10.767Z,34.36
2018-08-10T12:59:39.497Z,33.31
2018-08-10T13:02:08.390Z,32.70
2018-08-10T13:04:37.169Z,32.26
2018-08-10T13:07:06.017Z,31.84
2018-08-10T13:09:37.174Z,31.93
2018-08-10T13:12:09.412Z,31.96
2018-08-10T13:14:42.555Z,32.12
2018-08-10T13:17:16.917Z,32.35
2018-08-10T13:19:51.609Z,32.16
2018-08-10T13:22:25.570Z,31.91
2018-08-10T13:24:54.424Z,31.72
2018-08-10T13:27:23.202Z,31.53
2018-08-10T13:29:51.961Z,31.08
2018-08-10T13:32:20.705Z,30.81
2018-08-10T13:34:49.472Z,30.91
2018-08-10T13:37:18.229Z,30.92
2018-08-10T13:39:47.126Z,30.77
2018-08-10T13:42:15.960Z,30.78
2018-08-10T13:44:44.705Z,31.02
2018-08-10T13:47:13.453Z,31.00
2018-08-10T13:49:42.431Z,30.96
2018-08-10T13:52:11.262Z,30.75
2018-08-10T13:54:40.050Z,30.83
2018-08-10T13:57:08.792Z,30.91
2018-08-10T13:59:37.766Z,30.84
2018-08-10T14:02:06.561Z,30.96
2018-08-10T14:04:35.407Z,30.96
2018-08-10T14:07:04.192Z,31.07
2018-08-10T14:09:32.941Z,31.13
2018-08-10T14:12:01.693Z,31.11
2018-08-10T14:14:30.407Z,30.96
2018-08-10T14:16:59.163Z,31.04
2018-08-10T14:19:27.918Z,30.97
2018-08-10T14:21:56.872Z,31.07
2018-08-10T14:24:25.762Z,31.08
2018-08-10T14:26:54.507Z,31.12
2018-08-10T14:29:23.260Z,31.00
2018-08-10T14:31:51.973Z,30.92
2018-08-10T14:34:20.689Z,30.84
2018-08-10T14:36:49.435Z,30.77
2018-08-10T14:39:18.167Z,30.55
2018-08-10T14:41:46.871Z,30.49
2018-08-10T14:44:15.904Z,30.31
2018-08-10T14:46:44.659Z,30.40
2018-08-10T14:49:13.407Z,30.45
2018-08-10T14:51:42.193Z,30.27
2018-08-10T14:54:10.967Z,30.22
2018-08-10T14:56:39.753Z,30.17
2018-08-10T14:59:08.473Z,30.10
2018-08-10T15:01:37.191Z,30.03
2018-08-10T15:04:05.934Z,30.06
2018-08-10T15:06:34.704Z,30.12
2018-08-10T15:09:04.771Z,30.01
2018-08-10T15:11:33.624Z,29.72
2018-08-10T15:14:02.370Z,29.50
2018-08-10T15:16:31.097Z,29.48
2018-08-10T15:18:59.821Z,29.34
2018-08-10T15:21:28.737Z,29.36
2018-08-10T15:23:57.713Z,29.47
2018-08-10T15:26:26.483Z,29.64
2018-08-10T15:28:55.228Z,29.79
2018-08-10T15:31:23.972Z,30.01
2018-08-10T15:33:53.113Z,30.11
2018-08-10T15:36:21.842Z,30.28
2018-08-10T15:38:51.499Z,30.29
2018-08-10T15:41:20.264Z,30.35
2018-08-10T15:43:49.062Z,30.57
2018-08-10T15:46:17.835Z,30.81
2018-08-10T15:48:46.762Z,30.95
2018-08-10T15:51:15.485Z,30.92
2018-08-10T15:53:48.240Z,30.93
2018-08-10T15:56:21.186Z,30.96
2018-08-10T15:58:55.432Z,30.80
2018-08-10T16:01:28.459Z,30.35
2018-08-10T16:04:01.370Z,30.03
2018-08-10T16:06:34.472Z,29.75
2018-08-10T16:09:10.181Z,29.51
2018-08-10T16:11:43.613Z,29.32
2018-08-10T16:14:15.694Z,29.09
2018-08-10T16:16:49.585Z,28.99
2018-08-10T16:19:18.572Z,28.82
2018-08-10T16:21:47.382Z,28.68
2018-08-10T16:24:16.106Z,28.56
2018-08-10T16:26:44.811Z,28.47
2018-08-10T16:29:13.508Z,28.37
2018-08-10T16:31:42.233Z,28.31
2018-08-10T16:34:10.946Z,28.22
2018-08-10T16:36:39.683Z,28.15
2018-08-10T16:39:10.476Z,28.03
2018-08-10T16:41:39.206Z,27.83
2018-08-10T16:44:08.160Z,27.67
2018-08-10T16:46:36.861Z,27.58
2018-08-10T16:49:05.703Z,27.46
2018-08-10T16:51:34.437Z,27.27
2018-08-10T16:54:03.176Z,27.17
2018-08-10T16:56:32.060Z,26.95
2018-08-10T16:59:00.814Z,26.72
2018-08-10T17:01:29.574Z,26.61
2018-08-10T17:03:58.309Z,26.46
2018-08-10T17:06:27.126Z,26.21
2018-08-10T17:08:55.903Z,26.04
2018-08-10T17:11:24.606Z,25.86
2018-08-10T17:13:53.613Z,25.72
2018-08-10T17:16:22.397Z,25.51
2018-08-10T17:18:51.132Z,25.42
2018-08-10T17:21:19.869Z,25.30
2018-08-10T17:23:48.604Z,25.13
2018-08-10T17:26:17.342Z,25.05
2018-08-10T17:28:46.074Z,24.89
2018-08-10T17:31:14.795Z,24.76
2018-08-10T17:33:43.632Z,24.64
2018-08-10T17:36:12.355Z,24.59
2018-08-10T17:38:41.120Z,24.48
2018-08-10T17:41:09.845Z,24.39
2018-08-10T17:43:38.580Z,24.33
2018-08-10T17:46:07.342Z,24.23
2018-08-10T17:48:36.071Z,24.13
2018-08-10T17:51:04.823Z,24.15
2018-08-10T17:53:33.558Z,24.04
2018-08-10T17:56:02.277Z,24.01
2018-08-10T17:58:31.033Z,23.95
2018-08-10T18:00:59.773Z,23.91
2018-08-10T18:03:28.780Z,23.84
2018-08-10T18:05:57.485Z,23.76
2018-08-10T18:08:26.230Z,23.70
2018-08-10T18:10:54.960Z,23.58
2018-08-10T18:13:23.692Z,23.50
2018-08-10T18:15:52.507Z,23.40
2018-08-10T18:18:21.381Z,23.28
2018-08-10T18:20:50.188Z,23.26
2018-08-10T18:23:19.005Z,23.23
2018-08-10T18:25:47.751Z,23.21
2018-08-10T18:28:16.567Z,23.16
2018-08-10T18:30:45.345Z,23.12
2018-08-10T18:33:14.141Z,23.14
2018-08-10T18:35:42.893Z,23.07
2018-08-10T18:38:11.638Z,23.12
2018-08-10T18:40:40.516Z,23.02
2018-08-10T18:43:09.256Z,22.99
2018-08-10T18:45:38.025Z,22.97
2018-08-10T18:48:06.863Z,22.95
2018-08-10T18:50:35.617Z,22.87
2018-08-10T18:53:04.358Z,22.82
2018-08-10T18:55:33.145Z,22.77
2018-08-10T18:58:01.886Z,22.76
2018-08-10T19:00:30.668Z,22.69
2018-08-10T19:02:59.444Z,22.55
2018-08-10T19:05:28.214Z,22.52
2018-08-10T19:07:56.997Z,22.50
2018-08-10T19:10:27.921Z,22.46
2018-08-10T19:12:56.680Z,22.42
2018-08-10T19:15:25.437Z,22.29
2018-08-10T19:17:54.201Z,22.23
2018-08-10T19:20:22.997Z,22.16
2018-08-10T19:22:51.767Z,22.11
2018-08-10T19:25:20.596Z,22.08
2018-08-10T19:27:49.375Z,22.01
2018-08-10T19:30:21.659Z,21.94
2018-08-10T19:32:50.521Z,21.89
2018-08-10T19:35:19.572Z,21.97
2018-08-10T19:37:48.589Z,21.99
2018-08-10T19:40:18.621Z,21.94
2018-08-10T19:42:47.413Z,21.95
2018-08-10T19:45:17.211Z,21.88
2018-08-10T19:47:46.014Z,21.84
2018-08-10T19:50:16.082Z,21.83
2018-08-10T19:52:44.856Z,21.78
2018-08-10T19:55:15.407Z,21.69
2018-08-10T19:57:44.318Z,21.64
2018-08-10T20:00:15.475Z,21.59
2018-08-10T20:02:46.792Z,21.56
2018-08-10T20:05:15.622Z,21.68
2018-08-10T20:07:44.429Z,21.64
2018-08-10T20:10:13.889Z,21.61
2018-08-10T20:12:42.757Z,21.75
2018-08-10T20:15:13.115Z,21.64
2018-08-10T20:17:42.485Z,21.67
2018-08-10T20:20:13.100Z,21.68
2018-08-10T20:22:41.957Z,21.67
2018-08-10T20:25:11.504Z,21.45
2018-08-10T20:27:40.275Z,21.45
2018-08-10T20:30:13.126Z,21.45
2018-08-10T20:32:41.981Z,21.31
2018-08-10T20:35:14.460Z,21.21
2018-08-10T20:37:43.563Z,21.15
2018-08-10T20:40:14.316Z,21.23
2018-08-10T20:42:43.135Z,21.22
2018-08-10T20:45:11.968Z,21.12
2018-08-10T20:47:40.783Z,21.00
2018-08-10T20:50:12.416Z,21.05
2018-08-10T20:52:41.434Z,21.19
2018-08-10T20:55:10.334Z,21.08
2018-08-10T20:57:39.128Z,20.87
2018-08-10T21:00:08.851Z,20.87
2018-08-10T21:02:37.595Z,20.75
2018-08-10T21:05:06.667Z,20.87
2018-08-10T21:07:35.559Z,20.68
2018-08-10T21:10:04.423Z,20.55
2018-08-10T21:12:33.210Z,20.42
2018-08-10T21:15:01.961Z,20.36
2018-08-10T21:17:30.768Z,20.30
2018-08-10T21:19:59.600Z,20.21
2018-08-10T21:22:28.376Z,20.14
2018-08-10T21:24:57.143Z,20.25
2018-08-10T21:27:26.291Z,20.35
2018-08-10T21:29:55.109Z,20.53
2018-08-10T21:32:23.861Z,20.46
2018-08-10T21:34:52.566Z,20.49
2018-08-10T21:37:21.309Z,20.33
2018-08-10T21:39:50.020Z,20.29
2018-08-10T21:42:19.222Z,20.40
2018-08-10T21:44:48.047Z,20.46
2018-08-10T21:47:16.781Z,20.47
2018-08-10T21:49:45.482Z,20.47
2018-08-10T21:52:14.341Z,20.41
2018-08-10T21:54:43.028Z,20.48
2018-08-10T21:57:11.722Z,20.37
2018-08-10T21:59:40.425Z,20.37
2018-08-10T22:02:10.673Z,20.29
2018-08-10T22:04:39.392Z,20.29
2018-08-10T22:07:08.184Z,20.11
2018-08-10T22:09:36.958Z,19.95
2018-08-10T22:12:05.677Z,19.82
2018-08-10T22:14:39.828Z,19.85
2018-08-10T22:17:13.714Z,19.98
2018-08-10T22:19:42.481Z,19.85
2018-08-10T22:22:11.242Z,19.87
2018-08-10T22:24:40.468Z,19.80
2018-08-10T22:27:09.473Z,19.73
2018-08-10T22:29:38.997Z,19.74
2018-08-10T22:32:08.082Z,19.59
2018-08-10T22:34:37.610Z,19.47
2018-08-10T22:37:06.810Z,19.44
2018-08-10T22:39:35.539Z,19.49
2018-08-10T22:42:04.381Z,19.76
2018-08-10T22:44:33.341Z,19.85
2018-08-10T22:47:02.132Z,19.91
2018-08-10T22:49:30.974Z,19.93
2018-08-10T22:52:00.334Z,19.74
2018-08-10T22:54:29.045Z,19.76
2018-08-10T22:56:57.804Z,19.80
2018-08-10T22:59:26.535Z,19.77
2018-08-10T23:01:55.264Z,19.74
2018-08-10T23:04:23.995Z,19.75
2018-08-10T23:06:52.754Z,19.59
2018-08-10T23:09:21.527Z,19.41
2018-08-10T23:11:50.337Z,19.31
2018-08-10T23:14:19.107Z,19.37
2018-08-10T23:16:47.829Z,19.36
2018-08-10T23:19:16.509Z,19.32
2018-08-10T23:21:45.244Z,19.33
2018-08-10T23:24:14.074Z,19.25
2018-08-10T23:26:42.774Z,19.11
2018-08-10T23:29:11.587Z,18.89
2018-08-10T23:31:40.297Z,18.78
2018-08-10T23:34:09.045Z,18.88
2018-08-10T23:36:37.918Z,18.94
2018-08-10T23:39:09.382Z,18.96
2018-08-10T23:41:38.119Z,18.95
2018-08-10T23:44:06.893Z,18.84
2018-08-10T23:46:35.585Z,18.99
2018-08-10T23:49:04.344Z,18.95
2018-08-10T23:51:33.359Z,18.75
2018-08-10T23:54:02.186Z,18.59
2018-08-10T23:56:30.922Z,18.41
2018-08-10T23:58:59.818Z,18.44
